Time,TemperatureF,DewpointF,PressureIn,WindDirection,WindDirectionDegrees,WindSpeedMPH,WindSpeedGustMPH,Humidity,HourlyPrecipIn,Conditions,Clouds,dailyrainin,SoftwareType,DateUTC
2013-02-13 00:01:00,23.5,11.7,29.84,SW,216,8.7,12.3,60,0.00,,---,0.00,VWS V12.08,2013-02-13 06:01:00,
2013-02-13 00:06:00,23.4,11.5,29.84,SW,218,6.3,10.5,60,0.00,,---,0.00,VWS V12.08,2013-02-13 06:06:00,
2013-02-13 00:11:00,23.5,11.7,29.84,SW,218,7.6,11.9,60,0.00,,---,0.00,VWS V12.08,2013-02-13 06:11:00,
2013-02-13 00:16:00,23.5,12.1,29.84,SW,218,8.1,11.9,61,0.00,,---,0.00,VWS V12.08,2013-02-13 06:16:00,
2013-02-13 00:21:00,23.5,12.1,29.84,SSW,199,8.3,10.1,61,0.00,,---,0.00,VWS V12.08,2013-02-13 06:21:00,
2013-02-13 00:26:00,23.4,11.9,29.84,SW,226,5.8,10.1,61,0.00,,---,0.00,VWS V12.08,2013-02-13 06:26:00,
2013-02-13 00:31:00,23.5,12.1,29.84,SW,221,8.3,10.1,61,0.00,,---,0.00,VWS V12.08,2013-02-13 06:31:00,
2013-02-13 00:36:00,23.5,12.1,29.84,SSW,210,5.4,10.1,61,0.00,,---,0.00,VWS V12.08,2013-02-13 06:36:00,
2013-02-13 00:41:00,23.5,12.1,29.84,SSW,203,5.8,10.1,61,0.00,,---,0.00,VWS V12.08,2013-02-13 06:41:00,
2013-02-13 00:46:00,23.4,11.5,29.84,SSW,208,5.4,10.1,60,0.00,,---,0.00,VWS V12.08,2013-02-13 06:46:00,
2013-02-13 00:51:00,23.2,11.7,29.84,SSW,204,7.6,8.3,61,0.00,,---,0.00,VWS V12.08,2013-02-13 06:51:00,
2013-02-13 00:56:00,23.2,12.1,29.84,SSW,208,5.4,8.3,62,0.00,,---,0.00,VWS V12.08,2013-02-13 06:56:00,
2013-02-13 01:01:00,23.2,12.1,29.84,SW,216,6.3,8.3,62,0.00,,---,0.00,VWS V12.08,2013-02-13 07:01:00,
2013-02-13 01:06:00,23.2,11.7,29.84,SSW,202,4.0,6.7,61,0.00,,---,0.00,VWS V12.08,2013-02-13 07:06:00,
2013-02-13 01:11:00,23.2,12.1,29.84,South,187,4.9,7.6,62,0.00,,---,0.00,VWS V12.08,2013-02-13 07:11:00,
2013-02-13 01:16:00,23.0,11.9,29.84,SSW,210,4.0,7.6,62,0.00,,---,0.00,VWS V12.08,2013-02-13 07:16:00,
2013-02-13 01:21:00,23.0,12.3,29.81,SSW,205,8.1,8.7,63,0.00,,---,0.00,VWS V12.08,2013-02-13 07:21:00,
2013-02-13 01:26:00,23.4,12.6,29.81,SSW,205,5.8,10.1,63,0.00,,---,0.00,VWS V12.08,2013-02-13 07:26:00,
2013-02-13 01:31:00,23.4,12.3,29.81,South,183,3.1,10.1,62,0.00,,---,0.00,VWS V12.08,2013-02-13 07:31:00,
2013-02-13 01:36:00,22.8,11.0,29.81,South,182,3.1,5.4,60,0.00,,---,0.00,VWS V12.08,2013-02-13 07:36:00,
2013-02-13 01:41:00,22.3,10.1,29.81,South,181,4.0,5.4,59,0.00,,---,0.00,VWS V12.08,2013-02-13 07:41:00,
2013-02-13 01:46:00,21.7,9.6,29.81,South,171,4.5,5.4,59,0.00,,---,0.00,VWS V12.08,2013-02-13 07:46:00,
2013-02-13 01:51:00,21.2,9.1,29.81,SSE,168,4.0,4.9,59,0.00,,---,0.00,VWS V12.08,2013-02-13 07:51:00,
2013-02-13 01:56:00,21.0,9.3,29.81,SSE,168,3.1,4.9,60,0.00,,---,0.00,VWS V12.08,2013-02-13 07:56:00,
2013-02-13 02:01:00,20.8,9.5,29.81,SSE,168,2.7,3.1,61,0.00,,---,0.00,VWS V12.08,2013-02-13 08:01:00,
2013-02-13 02:06:00,20.8,9.5,29.81,SSE,168,2.7,3.6,61,0.00,,---,0.00,VWS V12.08,2013-02-13 08:06:00,
2013-02-13 02:11:00,21.0,9.7,29.81,SSE,168,2.7,4.0,61,0.00,,---,0.00,VWS V12.08,2013-02-13 08:11:00,
2013-02-13 02:16:00,20.8,9.5,29.81,SSE,168,2.7,2.7,61,0.00,,---,0.00,VWS V12.08,2013-02-13 08:16:00,
2013-02-13 02:21:00,20.8,9.9,29.81,South,169,3.1,3.6,62,0.00,,---,0.00,VWS V12.08,2013-02-13 08:21:00,
2013-02-13 02:26:00,20.8,9.9,29.81,SW,215,5.8,5.8,62,0.00,,---,0.00,VWS V12.08,2013-02-13 08:26:00,
2013-02-13 02:31:00,21.0,10.4,29.81,SW,215,3.6,6.3,63,0.00,,---,0.00,VWS V12.08,2013-02-13 08:31:00,
2013-02-13 02:36:00,21.2,10.9,29.81,SW,216,3.1,5.4,64,0.00,,---,0.00,VWS V12.08,2013-02-13 08:36:00,
2013-02-13 02:41:00,21.2,10.9,29.81,SW,217,2.7,5.4,64,0.00,,---,0.00,VWS V12.08,2013-02-13 08:41:00,
2013-02-13 02:46:00,21.2,10.6,29.81,SW,216,0.0,5.4,63,0.00,,---,0.00,VWS V12.08,2013-02-13 08:46:00,
2013-02-13 02:51:00,21.0,10.4,29.81,SW,217,0.0,2.2,63,0.00,,---,0.00,VWS V12.08,2013-02-13 08:51:00,
2013-02-13 02:56:00,20.8,10.2,29.81,SW,216,0.0,2.2,63,0.00,,---,0.00,VWS V12.08,2013-02-13 08:56:00,
2013-02-13 03:01:00,20.7,10.1,29.81,SW,216,0.0,2.2,63,0.00,,---,0.00,VWS V12.08,2013-02-13 09:01:00,
2013-02-13 03:06:00,19.9,9.0,29.78,SW,217,0.0,0.0,62,0.00,,---,0.00,VWS V12.08,2013-02-13 09:06:00,
2013-02-13 03:11:00,19.8,9.2,29.78,SW,217,0.0,0.0,63,0.00,,---,0.00,VWS V12.08,2013-02-13 09:11:00,
2013-02-13 03:16:00,19.9,9.7,29.78,SW,216,0.0,0.0,64,0.00,,---,0.00,VWS V12.08,2013-02-13 09:16:00,
2013-02-13 03:21:00,20.3,10.4,29.78,SW,216,3.6,4.9,65,0.00,,---,0.00,VWS V12.08,2013-02-13 09:21:00,
2013-02-13 03:26:00,20.3,10.8,29.78,SW,216,2.7,4.9,66,0.00,,---,0.00,VWS V12.08,2013-02-13 09:26:00,
2013-02-13 03:31:00,20.5,10.9,29.78,WSW,246,3.6,4.9,66,0.00,,---,0.00,VWS V12.08,2013-02-13 09:31:00,
2013-02-13 03:36:00,20.8,11.6,29.78,WSW,250,4.0,5.4,67,0.00,,---,0.00,VWS V12.08,2013-02-13 09:36:00,
2013-02-13 03:41:00,21.0,12.1,29.78,WSW,250,3.6,5.4,68,0.00,,---,0.00,VWS V12.08,2013-02-13 09:41:00,
2013-02-13 03:47:00,21.2,12.6,29.78,WSW,251,4.0,4.0,69,0.00,,---,0.00,VWS V12.08,2013-02-13 09:47:00,
2013-02-13 03:52:00,20.3,11.1,29.78,WSW,250,3.6,4.0,67,0.00,,---,0.00,VWS V12.08,2013-02-13 09:52:00,
2013-02-13 03:57:00,19.6,10.1,29.78,WSW,250,3.1,4.0,66,0.00,,---,0.00,VWS V12.08,2013-02-13 09:57:00,
2013-02-13 04:02:00,19.2,9.7,29.78,WSW,250,2.7,4.0,66,0.00,,---,0.00,VWS V12.08,2013-02-13 10:02:00,
2013-02-13 04:07:00,18.7,9.6,29.78,WSW,250,0.0,3.1,67,0.00,,---,0.00,VWS V12.08,2013-02-13 10:07:00,
2013-02-13 04:12:00,18.3,9.2,29.78,WSW,251,0.0,3.1,67,0.00,,---,0.00,VWS V12.08,2013-02-13 10:12:00,
2013-02-13 04:17:00,18.1,9.0,29.78,WSW,250,0.0,0.0,67,0.00,,---,0.00,VWS V12.08,2013-02-13 10:17:00,
2013-02-13 04:22:00,17.8,9.0,29.78,WSW,250,0.0,0.0,68,0.00,,---,0.00,VWS V12.08,2013-02-13 10:22:00,
2013-02-13 04:27:00,17.6,8.9,29.78,WSW,251,0.0,0.0,68,0.00,,---,0.00,VWS V12.08,2013-02-13 10:27:00,
2013-02-13 04:32:00,17.2,8.5,29.78,WSW,250,0.0,0.0,68,0.00,,---,0.00,VWS V12.08,2013-02-13 10:32:00,
2013-02-13 04:37:00,17.1,8.3,29.78,WSW,250,0.0,0.0,68,0.00,,---,0.00,VWS V12.08,2013-02-13 10:37:00,
2013-02-13 04:42:00,17.1,8.3,29.78,WSW,251,0.0,0.0,68,0.00,,---,0.00,VWS V12.08,2013-02-13 10:42:00,
2013-02-13 04:47:00,16.9,8.2,29.78,WSW,251,0.0,0.0,68,0.00,,---,0.00,VWS V12.08,2013-02-13 10:47:00,
2013-02-13 04:52:00,16.7,8.0,29.78,WSW,250,0.0,0.0,68,0.00,,---,0.00,VWS V12.08,2013-02-13 10:52:00,
2013-02-13 04:57:00,16.7,8.3,29.78,WSW,250,0.0,0.0,69,0.00,,---,0.00,VWS V12.08,2013-02-13 10:57:00,
2013-02-13 05:02:00,16.5,8.1,29.78,WSW,251,0.0,0.0,69,0.00,,---,0.00,VWS V12.08,2013-02-13 11:02:00,
2013-02-13 05:07:00,16.3,7.6,29.78,WSW,250,0.0,0.0,68,0.00,,---,0.00,VWS V12.08,2013-02-13 11:07:00,
2013-02-13 05:12:00,16.2,7.5,29.78,WSW,250,2.2,2.2,68,0.00,,---,0.00,VWS V12.08,2013-02-13 11:12:00,
2013-02-13 05:17:00,16.2,7.8,29.78,WSW,251,0.0,0.0,69,0.00,,---,0.00,VWS V12.08,2013-02-13 11:17:00,
2013-02-13 05:22:00,16.2,7.8,29.75,WSW,250,0.0,0.0,69,0.00,,---,0.00,VWS V12.08,2013-02-13 11:22:00,
2013-02-13 05:27:00,16.0,7.6,29.75,WSW,250,0.0,0.0,69,0.00,,---,0.00,VWS V12.08,2013-02-13 11:27:00,
2013-02-13 05:32:00,16.0,7.6,29.75,WSW,250,0.0,0.0,69,0.00,,---,0.00,VWS V12.08,2013-02-13 11:32:00,
2013-02-13 05:37:00,15.8,7.4,29.75,WSW,250,0.0,0.0,69,0.00,,---,0.00,VWS V12.08,2013-02-13 11:37:00,
2013-02-13 05:42:00,15.6,7.3,29.75,WSW,250,0.0,0.0,69,0.00,,---,0.00,VWS V12.08,2013-02-13 11:42:00,
2013-02-13 05:47:00,15.8,7.8,29.75,WSW,250,0.0,0.0,70,0.00,,---,0.00,VWS V12.08,2013-02-13 11:47:00,
2013-02-13 05:52:00,16.0,7.9,29.75,WSW,250,0.0,0.0,70,0.00,,---,0.00,VWS V12.08,2013-02-13 11:52:00,
2013-02-13 05:57:00,16.2,8.1,29.75,WSW,250,0.0,0.0,70,0.00,,---,0.00,VWS V12.08,2013-02-13 11:57:00,
2013-02-13 06:02:00,16.2,8.1,29.75,WSW,251,2.7,2.7,70,0.00,,---,0.00,VWS V12.08,2013-02-13 12:02:00,
2013-02-13 06:07:00,16.3,8.6,29.75,WSW,251,0.0,2.7,71,0.00,,---,0.00,VWS V12.08,2013-02-13 12:07:00,
2013-02-13 06:12:00,16.5,8.8,29.75,WSW,250,0.0,2.7,71,0.00,,---,0.00,VWS V12.08,2013-02-13 12:12:00,
2013-02-13 06:17:00,16.5,8.8,29.75,WSW,250,0.0,0.0,71,0.00,,---,0.00,VWS V12.08,2013-02-13 12:17:00,
2013-02-13 06:22:00,16.2,8.4,29.75,WSW,250,0.0,0.0,71,0.00,,---,0.00,VWS V12.08,2013-02-13 12:22:00,
2013-02-13 06:27:00,16.2,8.4,29.75,WSW,250,0.0,0.0,71,0.00,,---,0.00,VWS V12.08,2013-02-13 12:27:00,
2013-02-13 06:32:00,16.2,8.4,29.75,WSW,251,0.0,0.0,71,0.00,,---,0.00,VWS V12.08,2013-02-13 12:32:00,
2013-02-13 06:37:00,16.5,9.1,29.75,WSW,251,0.0,0.0,72,0.00,,---,0.00,VWS V12.08,2013-02-13 12:37:00,
2013-02-13 06:42:00,16.7,9.3,29.75,WSW,251,0.0,0.0,72,0.00,,---,0.00,VWS V12.08,2013-02-13 12:42:00,
2013-02-13 06:47:00,16.7,9.3,29.75,WSW,250,0.0,0.0,72,0.00,,---,0.00,VWS V12.08,2013-02-13 12:47:00,
2013-02-13 06:52:00,16.5,9.1,29.75,WSW,250,0.0,0.0,72,0.00,,---,0.00,VWS V12.08,2013-02-13 12:52:00,
2013-02-13 06:57:00,16.3,8.9,29.75,WSW,250,0.0,0.0,72,0.00,,---,0.00,VWS V12.08,2013-02-13 12:57:00,
2013-02-13 07:02:00,16.5,9.1,29.75,WSW,250,0.0,0.0,72,0.00,,---,0.00,VWS V12.08,2013-02-13 13:02:00,
2013-02-13 07:07:00,16.7,9.6,29.75,WSW,250,0.0,0.0,73,0.00,,---,0.00,VWS V12.08,2013-02-13 13:07:00,
2013-02-13 07:12:00,16.9,9.7,29.75,WSW,250,0.0,0.0,73,0.00,,---,0.00,VWS V12.08,2013-02-13 13:12:00,
2013-02-13 07:17:00,17.6,10.4,29.75,WSW,250,0.0,0.0,73,0.00,,---,0.00,VWS V12.08,2013-02-13 13:17:00,
2013-02-13 07:22:00,18.1,11.0,29.75,WSW,250,0.0,0.0,73,0.00,,---,0.00,VWS V12.08,2013-02-13 13:22:00,
2013-02-13 07:27:00,18.7,11.2,29.75,WSW,250,0.0,0.0,72,0.00,,---,0.00,VWS V12.08,2013-02-13 13:27:00,
2013-02-13 07:32:00,18.7,10.5,29.75,WSW,250,0.0,0.0,70,0.00,,---,0.00,VWS V12.08,2013-02-13 13:32:00,
2013-02-13 07:37:00,19.8,11.9,29.75,WSW,250,0.0,0.0,71,0.00,,---,0.00,VWS V12.08,2013-02-13 13:37:00,
2013-02-13 07:42:00,20.7,13.1,29.75,WSW,250,0.0,0.0,72,0.00,,---,0.00,VWS V12.08,2013-02-13 13:42:00,
2013-02-13 07:47:00,21.7,14.4,29.75,WSW,250,0.0,0.0,73,0.00,,---,0.00,VWS V12.08,2013-02-13 13:47:00,
2013-02-13 07:52:00,21.9,14.3,29.75,WSW,250,0.0,0.0,72,0.00,,---,0.00,VWS V12.08,2013-02-13 13:52:00,
2013-02-13 07:57:00,22.5,14.2,29.75,WSW,250,0.0,0.0,70,0.00,,---,0.00,VWS V12.08,2013-02-13 13:57:00,
2013-02-13 08:03:00,23.2,14.5,29.75,WSW,250,0.0,0.0,69,0.00,,---,0.00,VWS V12.08,2013-02-13 14:03:00,
2013-02-13 08:08:00,23.7,15.1,29.75,WSW,250,0.0,0.0,69,0.00,,---,0.00,VWS V12.08,2013-02-13 14:08:00,
2013-02-13 08:13:00,24.6,15.6,29.75,WSW,250,4.0,4.0,68,0.00,,---,0.00,VWS V12.08,2013-02-13 14:13:00,
2013-02-13 08:18:00,24.4,15.7,29.75,WSW,252,3.1,4.0,69,0.00,,---,0.00,VWS V12.08,2013-02-13 14:18:00,
2013-02-13 08:23:00,24.6,15.6,29.75,WSW,252,2.7,4.0,68,0.00,,---,0.00,VWS V12.08,2013-02-13 14:23:00,
2013-02-13 08:28:00,24.3,13.9,29.75,WSW,251,2.7,4.0,64,0.00,,---,0.00,VWS V12.08,2013-02-13 14:28:00,
2013-02-13 08:33:00,24.3,13.1,29.75,WSW,252,3.1,3.1,62,0.00,,---,0.00,VWS V12.08,2013-02-13 14:33:00,
2013-02-13 08:38:00,24.4,13.3,29.75,WSW,252,2.2,3.6,62,0.00,,---,0.00,VWS V12.08,2013-02-13 14:38:00,
2013-02-13 08:43:00,24.4,13.3,29.75,WSW,252,3.6,3.6,62,0.00,,---,0.00,VWS V12.08,2013-02-13 14:43:00,
2013-02-13 08:48:00,25.0,13.8,29.75,WSW,252,4.0,4.0,62,0.00,,---,0.00,VWS V12.08,2013-02-13 14:48:00,
2013-02-13 08:53:00,25.2,14.0,29.72,WSW,252,3.1,4.0,62,0.00,,---,0.00,VWS V12.08,2013-02-13 14:53:00,
2013-02-13 08:58:00,25.3,13.8,29.72,WSW,252,2.2,4.0,61,0.00,,---,0.00,VWS V12.08,2013-02-13 14:58:00,
2013-02-13 09:03:00,25.7,13.4,29.72,WSW,252,0.0,0.0,59,0.00,,---,0.00,VWS V12.08,2013-02-13 15:03:00,
2013-02-13 09:08:00,27.9,16.2,29.72,WSW,252,0.0,0.0,61,0.00,,---,0.00,VWS V12.08,2013-02-13 15:08:00,
2013-02-13 09:13:00,30.7,18.9,29.72,WSW,252,0.0,0.0,61,0.00,,---,0.00,VWS V12.08,2013-02-13 15:13:00,
2013-02-13 09:18:00,33.1,19.9,29.72,WSW,252,0.0,0.0,58,0.00,,---,0.00,VWS V12.08,2013-02-13 15:18:00,
2013-02-13 09:23:00,32.0,15.5,29.72,WSW,252,0.0,0.0,50,0.00,,---,0.00,VWS V12.08,2013-02-13 15:23:00,
2013-02-13 09:28:00,30.9,13.1,29.72,WSW,251,3.1,4.0,47,0.00,,---,0.00,VWS V12.08,2013-02-13 15:28:00,
2013-02-13 09:33:00,30.6,12.3,29.72,SW,221,3.1,4.0,46,0.00,,---,0.00,VWS V12.08,2013-02-13 15:33:00,
2013-02-13 09:38:00,30.6,12.7,29.72,SW,221,4.0,4.9,47,0.00,,---,0.00,VWS V12.08,2013-02-13 15:38:00,
2013-02-13 09:43:00,30.6,12.7,29.72,SW,236,4.5,6.3,47,0.00,,---,0.00,VWS V12.08,2013-02-13 15:43:00,
2013-02-13 09:48:00,31.1,13.2,29.72,SW,216,4.5,4.9,47,0.00,,---,0.00,VWS V12.08,2013-02-13 15:48:00,
2013-02-13 09:53:00,31.3,13.4,29.72,SW,216,3.6,4.9,47,0.00,,---,0.00,VWS V12.08,2013-02-13 15:53:00,
2013-02-13 09:58:00,31.6,13.7,29.72,SW,215,5.4,5.4,47,0.00,,---,0.00,VWS V12.08,2013-02-13 15:58:00,
2013-02-13 10:03:00,32.4,14.4,29.72,SW,218,4.0,4.0,47,0.00,,---,0.00,VWS V12.08,2013-02-13 16:03:00,
2013-02-13 10:08:00,32.2,13.7,29.72,SW,221,3.6,5.4,46,0.00,,---,0.00,VWS V12.08,2013-02-13 16:08:00,
2013-02-13 10:13:00,32.0,14.1,29.72,SW,223,6.3,6.7,47,0.00,,---,0.00,VWS V12.08,2013-02-13 16:13:00,
2013-02-13 10:18:00,32.2,14.2,29.72,SW,214,5.4,5.8,47,0.00,,---,0.00,VWS V12.08,2013-02-13 16:18:00,
2013-02-13 10:23:00,32.4,14.4,29.72,SW,226,5.4,6.3,47,0.00,,---,0.00,VWS V12.08,2013-02-13 16:23:00,
2013-02-13 10:28:00,32.4,13.9,29.72,WSW,244,5.4,6.3,46,0.00,,---,0.00,VWS V12.08,2013-02-13 16:28:00,
2013-02-13 10:33:00,32.5,14.1,29.72,WSW,237,7.6,7.6,46,0.00,,---,0.00,VWS V12.08,2013-02-13 16:33:00,
2013-02-13 10:38:00,32.2,13.7,29.72,SW,236,6.3,8.1,46,0.00,,---,0.00,VWS V12.08,2013-02-13 16:38:00,
2013-02-13 10:43:00,32.4,14.4,29.72,SW,227,4.0,8.1,47,0.00,,---,0.00,VWS V12.08,2013-02-13 16:43:00,
2013-02-13 10:48:00,32.5,14.1,29.72,SW,235,5.8,7.6,46,0.00,,---,0.00,VWS V12.08,2013-02-13 16:48:00,
2013-02-13 10:53:00,32.7,14.2,29.72,SW,214,5.4,7.6,46,0.00,,---,0.00,VWS V12.08,2013-02-13 16:53:00,
2013-02-13 10:58:00,32.7,13.7,29.72,SSW,209,6.3,8.1,45,0.00,,---,0.00,VWS V12.08,2013-02-13 16:58:00,
2013-02-13 11:03:00,32.7,13.7,29.72,SW,221,7.6,8.1,45,0.00,,---,0.00,VWS V12.08,2013-02-13 17:03:00,
2013-02-13 11:08:00,32.9,12.9,29.72,SW,221,7.2,8.1,43,0.00,,---,0.00,VWS V12.08,2013-02-13 17:08:00,
2013-02-13 11:13:00,33.1,12.0,29.72,SSW,213,6.3,8.1,41,0.00,,---,0.00,VWS V12.08,2013-02-13 17:13:00,
2013-02-13 11:18:00,33.6,12.4,29.72,SW,221,5.4,7.2,41,0.00,,---,0.00,VWS V12.08,2013-02-13 17:18:00,
2013-02-13 11:23:00,33.8,12.1,29.72,SW,226,5.4,7.2,40,0.00,,---,0.00,VWS V12.08,2013-02-13 17:23:00,
2013-02-13 11:28:00,33.8,12.1,29.72,SW,218,6.7,7.2,40,0.00,,---,0.00,VWS V12.08,2013-02-13 17:28:00,
2013-02-13 11:33:00,33.8,11.5,29.72,SW,220,7.2,7.2,39,0.00,,---,0.00,VWS V12.08,2013-02-13 17:33:00,
2013-02-13 11:38:00,33.6,11.9,29.72,SW,221,7.6,8.3,40,0.00,,---,0.00,VWS V12.08,2013-02-13 17:38:00,
2013-02-13 11:43:00,33.4,12.3,29.72,SW,223,8.1,8.7,41,0.00,,---,0.00,VWS V12.08,2013-02-13 17:43:00,
2013-02-13 11:48:00,34.0,11.6,29.72,SW,216,5.8,6.3,39,0.00,,---,0.00,VWS V12.08,2013-02-13 17:48:00,
2013-02-13 11:54:00,34.7,12.9,29.72,South,187,6.7,7.6,40,0.00,,---,0.00,VWS V12.08,2013-02-13 17:54:00,
2013-02-13 11:59:00,35.1,13.2,29.72,SSW,206,6.3,8.1,40,0.00,,---,0.00,VWS V12.08,2013-02-13 17:59:00,
2013-02-13 12:04:00,34.9,13.6,29.72,South,173,8.3,8.7,41,0.00,,---,0.00,VWS V12.08,2013-02-13 18:04:00,
2013-02-13 12:09:00,35.1,12.6,29.69,SSW,207,7.6,10.1,39,0.00,,---,0.00,VWS V12.08,2013-02-13 18:09:00,
2013-02-13 12:14:00,35.2,12.8,29.69,SSW,206,8.1,10.1,39,0.00,,---,0.00,VWS V12.08,2013-02-13 18:14:00,
2013-02-13 12:19:00,35.2,12.8,29.69,South,186,8.3,8.7,39,0.00,,---,0.00,VWS V12.08,2013-02-13 18:19:00,
2013-02-13 12:24:00,35.1,12.6,29.69,SSW,205,8.3,11.0,39,0.00,,---,0.00,VWS V12.08,2013-02-13 18:24:00,
2013-02-13 12:29:00,35.2,13.4,29.69,SSW,194,8.7,11.0,40,0.00,,---,0.00,VWS V12.08,2013-02-13 18:29:00,
2013-02-13 12:34:00,34.9,13.0,29.69,SSW,204,8.1,10.5,40,0.00,,---,0.00,VWS V12.08,2013-02-13 18:34:00,
2013-02-13 12:39:00,34.7,13.4,29.69,SSW,204,7.6,11.0,41,0.00,,---,0.00,VWS V12.08,2013-02-13 18:39:00,
2013-02-13 12:44:00,34.5,13.3,29.69,South,179,10.1,12.3,41,0.00,,---,0.00,VWS V12.08,2013-02-13 18:44:00,
2013-02-13 12:49:00,34.3,13.1,29.69,SW,214,6.3,12.8,41,0.00,,---,0.00,VWS V12.08,2013-02-13 18:49:00,
2013-02-13 12:54:00,34.5,14.3,29.69,WSW,238,5.8,12.8,43,0.00,,---,0.00,VWS V12.08,2013-02-13 18:54:00,
2013-02-13 12:59:00,34.5,13.8,29.69,SSW,203,8.1,12.8,42,0.00,,---,0.00,VWS V12.08,2013-02-13 18:59:00,
2013-02-13 13:04:00,34.5,13.3,29.69,SSW,195,10.1,10.5,41,0.00,,---,0.00,VWS V12.08,2013-02-13 19:04:00,
2013-02-13 13:09:00,34.5,13.8,29.69,SSW,205,10.5,11.0,42,0.00,,---,0.00,VWS V12.08,2013-02-13 19:09:00,
2013-02-13 13:14:00,34.3,13.6,29.69,SSW,200,9.6,12.3,42,0.00,,---,0.00,VWS V12.08,2013-02-13 19:14:00,
2013-02-13 13:19:00,34.3,13.6,29.69,SSW,199,7.6,13.2,42,0.00,,---,0.00,VWS V12.08,2013-02-13 19:19:00,
2013-02-13 13:24:00,34.9,14.1,29.69,SSW,209,6.7,13.2,42,0.00,,---,0.00,VWS V12.08,2013-02-13 19:24:00,
2013-02-13 13:29:00,35.1,14.3,29.69,SW,216,6.3,13.2,42,0.00,,---,0.00,VWS V12.08,2013-02-13 19:29:00,
2013-02-13 13:34:00,35.4,14.1,29.69,South,191,8.1,10.1,41,0.00,,---,0.00,VWS V12.08,2013-02-13 19:34:00,
2013-02-13 13:39:00,35.6,14.2,29.69,SW,223,7.6,11.0,41,0.00,,---,0.00,VWS V12.08,2013-02-13 19:39:00,
2013-02-13 13:44:00,35.6,13.7,29.69,SSW,208,8.1,11.0,40,0.00,,---,0.00,VWS V12.08,2013-02-13 19:44:00,
2013-02-13 13:49:00,35.4,13.5,29.69,SW,215,6.3,12.8,40,0.00,,---,0.00,VWS V12.08,2013-02-13 19:49:00,
2013-02-13 13:54:00,35.4,13.5,29.69,SW,220,5.8,12.8,40,0.00,,---,0.00,VWS V12.08,2013-02-13 19:54:00,
2013-02-13 13:59:00,35.8,13.8,29.69,SSW,205,8.7,12.8,40,0.00,,---,0.00,VWS V12.08,2013-02-13 19:59:00,
2013-02-13 14:04:00,36.0,13.4,29.69,SW,223,10.1,11.0,39,0.00,,---,0.00,VWS V12.08,2013-02-13 20:04:00,
2013-02-13 14:09:00,36.0,13.4,29.69,SW,231,8.1,11.0,39,0.00,,---,0.00,VWS V12.08,2013-02-13 20:09:00,
2013-02-13 14:14:00,35.8,12.7,29.69,SW,232,8.7,11.0,38,0.00,,---,0.00,VWS V12.08,2013-02-13 20:14:00,
2013-02-13 14:19:00,35.8,13.3,29.69,SW,227,10.1,11.0,39,0.00,,---,0.00,VWS V12.08,2013-02-13 20:19:00,
2013-02-13 14:24:00,36.0,13.4,29.69,SW,223,10.5,12.8,39,0.00,,---,0.00,VWS V12.08,2013-02-13 20:24:00,
2013-02-13 14:29:00,36.5,13.3,29.69,SW,220,8.7,12.8,38,0.00,,---,0.00,VWS V12.08,2013-02-13 20:29:00,
2013-02-13 14:34:00,36.7,13.5,29.69,SSW,211,10.1,10.1,38,0.00,,---,0.00,VWS V12.08,2013-02-13 20:34:00,
2013-02-13 14:39:00,37.0,13.8,29.69,SW,214,8.1,10.1,38,0.00,,---,0.00,VWS V12.08,2013-02-13 20:39:00,
2013-02-13 14:44:00,36.9,13.6,29.69,SW,230,8.1,10.5,38,0.00,,---,0.00,VWS V12.08,2013-02-13 20:44:00,
2013-02-13 14:49:00,36.7,14.1,29.69,SW,226,10.1,10.1,39,0.00,,---,0.00,VWS V12.08,2013-02-13 20:49:00,
2013-02-13 14:54:00,36.5,13.3,29.69,SW,222,10.1,11.0,38,0.00,,---,0.00,VWS V12.08,2013-02-13 20:54:00,
2013-02-13 14:59:00,36.7,14.1,29.69,WSW,241,7.6,11.0,39,0.00,,---,0.00,VWS V12.08,2013-02-13 20:59:00,
2013-02-13 15:04:00,36.9,14.2,29.69,SW,226,5.8,10.5,39,0.00,,---,0.00,VWS V12.08,2013-02-13 21:04:00,
2013-02-13 15:09:00,37.0,14.4,29.69,SW,229,6.3,10.5,39,0.00,,---,0.00,VWS V12.08,2013-02-13 21:09:00,
2013-02-13 15:14:00,37.0,14.4,29.69,SW,224,6.3,10.5,39,0.00,,---,0.00,VWS V12.08,2013-02-13 21:14:00,
2013-02-13 15:19:00,36.9,14.2,29.69,SW,227,9.2,12.3,39,0.00,,---,0.00,VWS V12.08,2013-02-13 21:19:00,
2013-02-13 15:25:00,36.9,13.6,29.69,SW,230,8.3,12.3,38,0.00,,---,0.00,VWS V12.08,2013-02-13 21:25:00,
2013-02-13 15:30:00,36.7,13.5,29.69,SW,223,8.7,12.3,38,0.00,,---,0.00,VWS V12.08,2013-02-13 21:30:00,
2013-02-13 15:35:00,36.5,13.3,29.69,SW,235,8.7,10.1,38,0.00,,---,0.00,VWS V12.08,2013-02-13 21:35:00,
2013-02-13 15:40:00,36.3,13.8,29.69,SW,230,8.3,10.1,39,0.00,,---,0.00,VWS V12.08,2013-02-13 21:40:00,
2013-02-13 15:45:00,36.7,14.1,29.69,SW,229,6.3,10.1,39,0.00,,---,0.00,VWS V12.08,2013-02-13 21:45:00,
2013-02-13 15:50:00,36.3,13.8,29.69,SW,225,8.7,8.7,39,0.00,,---,0.00,VWS V12.08,2013-02-13 21:50:00,
2013-02-13 15:55:00,36.7,14.1,29.69,SW,225,8.1,8.7,39,0.00,,---,0.00,VWS V12.08,2013-02-13 21:55:00,
2013-02-13 16:00:00,36.7,14.1,29.69,SW,226,7.6,8.7,39,0.00,,---,0.00,VWS V12.08,2013-02-13 22:00:00,
2013-02-13 16:05:00,36.3,13.2,29.69,SW,221,8.7,10.5,38,0.00,,---,0.00,VWS V12.08,2013-02-13 22:05:00,
2013-02-13 16:10:00,36.5,13.3,29.69,SW,217,8.7,10.5,38,0.00,,---,0.00,VWS V12.08,2013-02-13 22:10:00,
2013-02-13 16:15:00,36.5,13.3,29.69,SW,226,8.3,10.5,38,0.00,,---,0.00,VWS V12.08,2013-02-13 22:15:00,
2013-02-13 16:20:00,36.5,13.9,29.69,SW,219,8.3,8.7,39,0.00,,---,0.00,VWS V12.08,2013-02-13 22:20:00,
2013-02-13 16:25:00,36.3,13.8,29.69,SW,229,7.6,10.1,39,0.00,,---,0.00,VWS V12.08,2013-02-13 22:25:00,
2013-02-13 16:30:00,36.0,13.4,29.69,SW,222,7.6,10.1,39,0.00,,---,0.00,VWS V12.08,2013-02-13 22:30:00,
2013-02-13 16:35:00,36.0,13.4,29.69,SW,221,7.6,8.1,39,0.00,,---,0.00,VWS V12.08,2013-02-13 22:35:00,
2013-02-13 16:40:00,36.0,13.4,29.69,SW,220,8.3,8.7,39,0.00,,---,0.00,VWS V12.08,2013-02-13 22:40:00,
2013-02-13 16:45:00,35.4,14.1,29.69,SW,225,7.6,8.7,41,0.00,,---,0.00,VWS V12.08,2013-02-13 22:45:00,
2013-02-13 16:50:00,35.1,14.3,29.69,SW,214,7.6,8.1,42,0.00,,---,0.00,VWS V12.08,2013-02-13 22:50:00,
2013-02-13 16:55:00,34.9,14.1,29.69,SSW,212,7.6,8.7,42,0.00,,---,0.00,VWS V12.08,2013-02-13 22:55:00,
2013-02-13 17:00:00,34.7,13.4,29.69,SW,219,5.4,8.7,41,0.00,,---,0.00,VWS V12.08,2013-02-13 23:00:00,
2013-02-13 17:05:00,34.5,13.8,29.69,SSW,209,5.4,6.3,42,0.00,,---,0.00,VWS V12.08,2013-02-13 23:05:00,
2013-02-13 17:10:00,34.3,14.2,29.69,SW,222,5.8,6.3,43,0.00,,---,0.00,VWS V12.08,2013-02-13 23:10:00,
2013-02-13 17:15:00,34.2,14.0,29.69,SW,222,5.4,6.3,43,0.00,,---,0.00,VWS V12.08,2013-02-13 23:15:00,
2013-02-13 17:20:00,33.8,15.2,29.69,SW,229,6.3,6.3,46,0.00,,---,0.00,VWS V12.08,2013-02-13 23:20:00,
2013-02-13 17:25:00,33.6,15.1,29.69,SW,226,6.7,7.6,46,0.00,,---,0.00,VWS V12.08,2013-02-13 23:25:00,
2013-02-13 17:30:00,33.6,15.1,29.69,SW,229,6.3,8.1,46,0.00,,---,0.00,VWS V12.08,2013-02-13 23:30:00,
2013-02-13 17:35:00,33.3,15.2,29.69,SW,223,5.4,7.6,47,0.00,,---,0.00,VWS V12.08,2013-02-13 23:35:00,
2013-02-13 17:40:00,33.3,15.2,29.69,SW,217,5.8,7.6,47,0.00,,---,0.00,VWS V12.08,2013-02-13 23:40:00,
2013-02-13 17:45:00,33.3,15.2,29.69,SW,214,6.3,7.6,47,0.00,,---,0.00,VWS V12.08,2013-02-13 23:45:00,
2013-02-13 17:50:00,33.3,15.7,29.69,SW,225,8.3,8.3,48,0.00,,---,0.00,VWS V12.08,2013-02-13 23:50:00,
2013-02-13 17:55:00,33.4,15.9,29.69,SW,228,6.3,8.3,48,0.00,,---,0.00,VWS V12.08,2013-02-13 23:55:00,
2013-02-13 18:00:00,33.4,15.9,29.69,SW,231,8.3,8.7,48,0.00,,---,0.00,VWS V12.08,2013-02-14 00:00:00,
2013-02-13 18:05:00,33.6,16.0,29.69,SW,226,7.6,7.6,48,0.00,,---,0.00,VWS V12.08,2013-02-14 00:05:00,
2013-02-13 18:10:00,33.6,15.6,29.69,SW,222,5.8,8.1,47,0.00,,---,0.00,VWS V12.08,2013-02-14 00:10:00,
2013-02-13 18:15:00,33.6,15.6,29.69,SSW,207,7.2,10.5,47,0.00,,---,0.00,VWS V12.08,2013-02-14 00:15:00,
2013-02-13 18:20:00,33.6,15.6,29.69,SW,230,8.1,8.7,47,0.00,,---,0.00,VWS V12.08,2013-02-14 00:20:00,
2013-02-13 18:25:00,33.6,16.0,29.69,SW,221,8.3,8.7,48,0.00,,---,0.00,VWS V12.08,2013-02-14 00:25:00,
2013-02-13 18:30:00,33.6,16.0,29.69,SW,218,7.2,8.7,48,0.00,,---,0.00,VWS V12.08,2013-02-14 00:30:00,
2013-02-13 18:35:00,33.4,15.9,29.69,SW,228,8.3,8.3,48,0.00,,---,0.00,VWS V12.08,2013-02-14 00:35:00,
2013-02-13 18:40:00,33.4,15.9,29.69,SSW,197,8.3,10.5,48,0.00,,---,0.00,VWS V12.08,2013-02-14 00:40:00,
2013-02-13 18:45:00,33.4,15.9,29.69,SW,220,8.7,10.5,48,0.00,,---,0.00,VWS V12.08,2013-02-14 00:45:00,
2013-02-13 18:50:00,33.3,16.2,29.69,SW,223,8.1,8.7,49,0.00,,---,0.00,VWS V12.08,2013-02-14 00:50:00,
2013-02-13 18:55:00,33.3,16.2,29.69,SW,230,8.1,10.1,49,0.00,,---,0.00,VWS V12.08,2013-02-14 00:55:00,
2013-02-13 19:01:00,33.3,16.6,29.69,SW,226,7.6,10.1,50,0.00,,---,0.00,VWS V12.08,2013-02-14 01:01:00,
2013-02-13 19:06:00,33.1,16.5,29.69,SW,226,6.3,8.3,50,0.00,,---,0.00,VWS V12.08,2013-02-14 01:06:00,
2013-02-13 19:11:00,33.1,16.5,29.69,SW,229,6.3,8.3,50,0.00,,---,0.00,VWS V12.08,2013-02-14 01:11:00,
2013-02-13 19:16:00,33.3,16.6,29.69,SSW,208,5.8,8.3,50,0.00,,---,0.00,VWS V12.08,2013-02-14 01:16:00,
2013-02-13 19:21:00,33.3,16.6,29.69,SSW,200,6.3,8.3,50,0.00,,---,0.00,VWS V12.08,2013-02-14 01:21:00,
2013-02-13 19:26:00,33.1,16.5,29.69,SW,218,4.0,8.3,50,0.00,,---,0.00,VWS V12.08,2013-02-14 01:26:00,
2013-02-13 19:31:00,33.1,16.0,29.69,SW,223,5.4,8.3,49,0.00,,---,0.00,VWS V12.08,2013-02-14 01:31:00,
2013-02-13 19:36:00,32.7,16.1,29.69,SW,222,5.8,6.7,50,0.00,,---,0.00,VWS V12.08,2013-02-14 01:36:00,
2013-02-13 19:41:00,32.7,16.1,29.69,SW,225,5.8,8.3,50,0.00,,---,0.00,VWS V12.08,2013-02-14 01:41:00,
2013-02-13 19:46:00,32.7,16.6,29.69,SW,227,6.3,8.3,51,0.00,,---,0.00,VWS V12.08,2013-02-14 01:46:00,
2013-02-13 19:51:00,32.9,16.8,29.69,SSW,212,4.0,6.3,51,0.00,,---,0.00,VWS V12.08,2013-02-14 01:51:00,
2013-02-13 19:56:00,33.1,16.5,29.69,South,189,4.0,6.3,50,0.00,,---,0.00,VWS V12.08,2013-02-14 01:56:00,
2013-02-13 20:01:00,33.1,16.0,29.69,South,190,3.1,6.3,49,0.00,,---,0.00,VWS V12.08,2013-02-14 02:01:00,
2013-02-13 20:06:00,33.1,16.5,29.69,SSW,199,4.0,4.9,50,0.00,,---,0.00,VWS V12.08,2013-02-14 02:06:00,
2013-02-13 20:11:00,32.9,16.8,29.69,SSW,195,4.0,5.4,51,0.00,,---,0.00,VWS V12.08,2013-02-14 02:11:00,
2013-02-13 20:16:00,32.9,17.2,29.69,South,190,4.0,6.3,52,0.00,,---,0.00,VWS V12.08,2013-02-14 02:16:00,
2013-02-13 20:21:00,32.9,17.2,29.69,South,190,3.1,5.4,52,0.00,,---,0.00,VWS V12.08,2013-02-14 02:21:00,
2013-02-13 20:26:00,32.9,17.2,29.69,South,181,3.6,5.4,52,0.00,,---,0.00,VWS V12.08,2013-02-14 02:26:00,
2013-02-13 20:31:00,33.1,17.4,29.69,South,186,4.0,5.8,52,0.00,,---,0.00,VWS V12.08,2013-02-14 02:31:00,
2013-02-13 20:36:00,33.1,17.4,29.69,South,181,3.6,5.4,52,0.00,,---,0.00,VWS V12.08,2013-02-14 02:36:00,
2013-02-13 20:41:00,33.1,17.4,29.69,SW,219,4.9,5.4,52,0.00,,---,0.00,VWS V12.08,2013-02-14 02:41:00,
2013-02-13 20:46:00,33.1,17.8,29.69,SSW,195,3.6,5.8,53,0.00,,---,0.00,VWS V12.08,2013-02-14 02:46:00,
2013-02-13 20:51:00,33.3,17.5,29.69,SSW,203,5.4,6.3,52,0.00,,---,0.00,VWS V12.08,2013-02-14 02:51:00,
2013-02-13 20:56:00,33.3,17.1,29.69,SW,232,8.1,8.1,51,0.00,,---,0.00,VWS V12.08,2013-02-14 02:56:00,
2013-02-13 21:01:00,33.4,17.3,29.69,SW,225,5.4,10.5,51,0.00,,---,0.00,VWS V12.08,2013-02-14 03:01:00,
2013-02-13 21:06:00,33.6,17.0,29.69,SSW,203,5.8,7.6,50,0.00,,---,0.00,VWS V12.08,2013-02-14 03:06:00,
2013-02-13 21:11:00,33.6,17.0,29.69,SW,218,4.0,8.1,50,0.00,,---,0.00,VWS V12.08,2013-02-14 03:11:00,
2013-02-13 21:16:00,33.6,17.0,29.69,SSW,200,4.0,8.1,50,0.00,,---,0.00,VWS V12.08,2013-02-14 03:16:00,
2013-02-13 21:21:00,33.6,17.0,29.69,SSW,212,5.8,6.3,50,0.00,,---,0.00,VWS V12.08,2013-02-14 03:21:00,
2013-02-13 21:26:00,33.6,17.4,29.69,SSW,211,5.4,7.2,51,0.00,,---,0.00,VWS V12.08,2013-02-14 03:26:00,
2013-02-13 21:31:00,33.6,17.4,29.69,SW,234,4.0,7.6,51,0.00,,---,0.00,VWS V12.08,2013-02-14 03:31:00,
2013-02-13 21:36:00,33.6,17.4,29.69,SSW,211,4.0,5.8,51,0.00,,---,0.00,VWS V12.08,2013-02-14 03:36:00,
2013-02-13 21:41:00,33.6,17.4,29.69,SSW,208,5.8,6.7,51,0.00,,---,0.00,VWS V12.08,2013-02-14 03:41:00,
2013-02-13 21:46:00,33.6,17.4,29.69,SSW,205,5.4,6.7,51,0.00,,---,0.00,VWS V12.08,2013-02-14 03:46:00,
2013-02-13 21:51:00,33.6,17.4,29.69,South,188,2.7,4.9,51,0.00,,---,0.00,VWS V12.08,2013-02-14 03:51:00,
2013-02-13 21:56:00,33.6,17.4,29.69,SSW,195,2.7,4.9,51,0.00,,---,0.00,VWS V12.08,2013-02-14 03:56:00,
2013-02-13 22:01:00,33.6,18.3,29.69,South,171,3.1,4.9,53,0.00,,---,0.00,VWS V12.08,2013-02-14 04:01:00,
2013-02-13 22:06:00,33.4,19.0,29.69,SSE,160,2.7,4.0,55,0.00,,---,0.00,VWS V12.08,2013-02-14 04:06:00,
2013-02-13 22:11:00,33.3,19.3,29.69,SSE,160,2.7,4.0,56,0.00,,---,0.00,VWS V12.08,2013-02-14 04:11:00,
2013-02-13 22:16:00,33.1,19.5,29.69,SSE,158,4.0,4.0,57,0.00,,---,0.00,VWS V12.08,2013-02-14 04:16:00,
2013-02-13 22:22:00,33.1,20.3,29.69,SSE,158,4.0,4.0,59,0.00,,---,0.00,VWS V12.08,2013-02-14 04:22:00,
2013-02-13 22:27:00,32.9,20.5,29.69,SSE,158,3.6,4.5,60,0.00,,---,0.00,VWS V12.08,2013-02-14 04:27:00,
2013-02-13 22:32:00,32.7,20.8,29.69,SSE,160,5.4,5.4,61,0.00,,---,0.00,VWS V12.08,2013-02-14 04:32:00,
2013-02-13 22:37:00,32.9,20.5,29.66,South,170,4.0,5.4,60,0.00,,---,0.00,VWS V12.08,2013-02-14 04:37:00,
2013-02-13 22:42:00,32.9,20.5,29.66,South,175,4.0,6.3,60,0.00,,---,0.00,VWS V12.08,2013-02-14 04:42:00,
2013-02-13 22:47:00,32.9,20.2,29.66,SSE,162,4.0,6.3,59,0.00,,---,0.00,VWS V12.08,2013-02-14 04:47:00,
2013-02-13 22:52:00,32.7,20.4,29.66,SSE,166,5.4,5.4,60,0.00,,---,0.00,VWS V12.08,2013-02-14 04:52:00,
2013-02-13 22:57:00,32.7,21.1,29.66,South,172,5.4,5.8,62,0.00,,---,0.00,VWS V12.08,2013-02-14 04:57:00,
2013-02-13 23:00:00,32.5,21.0,29.66,SSE,165,5.4,6.3,62,0.00,,---,0.00,VWS V12.08,2013-02-14 05:00:00,
2013-02-13 23:05:00,32.5,21.4,29.66,South,170,5.4,5.4,63,0.00,,---,0.00,VWS V12.08,2013-02-14 05:05:00,
2013-02-13 23:10:00,32.5,21.4,29.66,SSE,168,3.6,5.4,63,0.00,,---,0.00,VWS V12.08,2013-02-14 05:10:00,
2013-02-13 23:15:00,32.5,21.4,29.66,SSE,168,3.6,5.4,63,0.00,,---,0.00,VWS V12.08,2013-02-14 05:15:00,
2013-02-13 23:20:00,32.5,21.4,29.66,SSE,168,4.0,4.9,63,0.00,,---,0.00,VWS V12.08,2013-02-14 05:20:00,
2013-02-13 23:25:00,32.5,21.4,29.66,SSE,168,3.6,5.4,63,0.00,,---,0.00,VWS V12.08,2013-02-14 05:25:00,
2013-02-13 23:30:00,32.7,21.1,29.66,South,177,3.1,5.4,62,0.00,,---,0.00,VWS V12.08,2013-02-14 05:30:00,
2013-02-13 23:35:00,32.7,21.1,29.66,SSE,164,4.0,4.0,62,0.00,,---,0.00,VWS V12.08,2013-02-14 05:35:00,
2013-02-13 23:40:00,32.5,21.0,29.66,SSE,155,4.0,4.9,62,0.00,,---,0.00,VWS V12.08,2013-02-14 05:40:00,
2013-02-13 23:45:00,32.5,21.4,29.66,SSE,154,4.9,5.4,63,0.00,,---,0.00,VWS V12.08,2013-02-14 05:45:00,
2013-02-13 23:50:00,32.5,22.1,29.66,SSE,158,4.9,5.4,65,0.00,,---,0.00,VWS V12.08,2013-02-14 05:50:00,
2013-02-13 23:55:00,32.7,22.6,29.66,SSE,166,5.4,6.3,66,0.00,,---,0.00,VWS V12.08,2013-02-14 05:55:00,